Terminal Aerodrome Forecast
Issued by NWS

Home | Current Version | Previous Version | Text Only | Print | Product List | Glossary On
Versions: 1 2 3 4 5 6 7 8 9 10 11 12 13 14 15 16 17 18 19 20 21 22 23 24 25
322
FTUS41 KRLX 301738
TAFCKB
TAF
KCKB 301738Z 3018/0118 08008KT 6SM SHRA BKN026
     FM302200 09008KT 5SM SHRA VCTS BKN025CB
     FM010700 VRB03KT 2SM -SHRA BKN007=

USA.gov is the U.S. government's official web portal to all federal, state and local government web resources and services.